Columbia — WYR2092 — position and weather

sailwx.info

Track history (hours):
 
Tides and Currents Weather Stations Pressure Air Temp Water Temp Dewpoint Dewpoint Depression Visibility Wind Speed Wind Dir Waves Ship Positions

Columbia

Owner: ALASKA, STATE OF, ANCHORAGE, AK. More information available from US FCC via Universal Licensing System and Coast Guard Vessel Documentation Center.

Last reported at 2019-Sep-29 11:48 UTC. Time now 2019-Oct-16 20:02 UTC.
Position N 54°54' W 131°02'.
Warning: this ship's position is 17 days out of date.

Type: Passenger vessel. MMSI: 367144000.

Date/timePositionNaut miles runAvg speedWind from/ knotsBaromVisibWave heightAir tempDewpointWater temp
2019-Sep-29 11:48N 54°54' W 131°02'515.6
2019-Sep-29 11:30N 54°49' W 130°60'1017.2
2019-Sep-29 10:57N 54°42' W 130°48'715.9
2019-Sep-29 10:30N 54°37' W 130°41'816.0
2019-Sep-29 10:00N 54°29' W 130°39'815.4
2019-Sep-29 09:30N 54°21' W 130°36'815.7
2019-Sep-29 09:00N 54°14' W 130°31'815.7
2019-Sep-29 08:30N 54°08' W 130°23'713.5
2019-Sep-29 08:00N 54°03' W 130°15'815.8
2019-Sep-29 07:30N 53°55' W 130°11'815.5
2019-Sep-29 07:00N 53°50' W 130°01'815.5
2019-Sep-29 06:30N 53°45' W 129°52'7814.7
2019-Sep-29 01:13N 52°43' W 128°34'315.1
2019-Sep-29 00:59N 52°39' W 128°32'816.2
2019-Sep-29 00:30N 52°32' W 128°28'815.8
2019-Sep-29 00:01N 52°24' W 128°30'815.4
2019-Sep-28 23:30N 52°17' W 128°27'918.7
2019-Sep-28 23:01N 52°14' W 128°12'5 9.1
2019-Sep-28 22:30N 52°10' W 128°08'2 4.9
2019-Sep-28 22:00N 52°08' W 128°08'815.6
2019-Sep-28 21:30N 52°04' W 127°57'815.5
2019-Sep-28 21:01N 51°56' W 127°56'917.2
2019-Sep-28 20:31N 51°48' W 127°55'917.2
2019-Sep-28 20:01N 51°39' W 127°54'816.5
2019-Sep-28 19:31N 51°31' W 127°51'815.5
2019-Sep-28 19:01N 51°24' W 127°55'816.8
2019-Sep-28 18:30N 51°15' W 127°52'816.2
2019-Sep-28 18:00N 51°08' W 127°47'1116.7
2019-Sep-28 17:21N 50°60' W 127°35'2817.2
2019-Sep-28 15:44N 50°44' W 126°59'6617.9
2019-Sep-28 12:02N 50°17' W 125°24'118.4
2019-Sep-28 11:59N 50°16' W 125°24'817.2
2019-Sep-28 11:30N 50°08' W 125°21'612.9
2019-Sep-28 11:00N 50°03' W 125°14'713.3
2019-Sep-28 10:30N 49°57' W 125°09'816.7
2019-Sep-28 10:00N 49°52' W 124°59'917.2
2019-Sep-28 09:30N 49°45' W 124°50'916.5
2019-Sep-28 08:59N 49°39' W 124°41'1616.8
2019-Sep-28 08:02N 49°28' W 124°23'116.0
2019-Sep-28 07:57N 49°27' W 124°22'817.4
2019-Sep-28 07:30N 49°25' W 124°11'917.5
2019-Sep-28 07:00N 49°23' W 123°57'816.6
2019-Sep-28 06:30N 49°19' W 123°46'815.5
2019-Sep-28 06:00N 49°14' W 123°37'816.3
2019-Sep-28 05:30N 49°09' W 123°28'816.5
2019-Sep-28 05:00N 49°03' W 123°19'816.0
2019-Sep-28 04:31N 48°57' W 123°10'815.7
2019-Sep-28 04:00N 48°52' W 123°01'816.0
2019-Sep-28 03:30N 48°47' W 122°51'715.2
2019-Sep-28 03:01N 48°42' W 122°43'713.9
2019-Sep-28 02:30N 48°39' W 122°34'510.5
2019-Sep-28 02:00N 48°43' W 122°31'0 0.0
2019-Sep-27 19:50N 48°43' W 122°31'0 0.0
2019-Sep-27 19:20N 48°43' W 122°31'0 0.0
2019-Sep-27 18:20N 48°43' W 122°31'0 0.0
2019-Sep-27 17:56N 48°43' W 122°31'0 0.0
2019-Sep-27 17:14N 48°43' W 122°31'0 0.0
2019-Sep-27 16:50N 48°43' W 122°31'0 0.0
2019-Sep-27 16:08N 48°43' W 122°31'0 0.0
2019-Sep-27 15:44N 48°43' W 122°31'0 0.0
2019-Sep-27 15:26N 48°43' W 122°31'0 0.0
2019-Sep-27 14:56N 48°43' W 122°31'0 0.3
2019-Sep-27 14:30N 48°44' W 122°31'4 7.9
2019-Sep-27 14:00N 48°40' W 122°33'510.9
2019-Sep-27 13:30N 48°39' W 122°42'816.5
2019-Sep-27 13:00N 48°46' W 122°50'816.9
2019-Sep-27 12:30N 48°50' W 123°01'817.0
2019-Sep-27 12:00N 48°56' W 123°10'815.1
2019-Sep-27 11:30N 49°00' W 123°19'816.0
2019-Sep-27 11:00N 49°06' W 123°28'815.9
2019-Sep-27 10:30N 49°11' W 123°38'816.1
2019-Sep-27 10:00N 49°15' W 123°48'815.7
2019-Sep-27 09:30N 49°19' W 123°59'816.1
2019-Sep-27 09:00N 49°23' W 124°09'815.2
2019-Sep-27 08:30N 49°26' W 124°20'1416.5
2019-Sep-27 07:39N 49°35' W 124°36'316.3
2019-Sep-27 07:29N 49°37' W 124°39'816.1
2019-Sep-27 07:00N 49°43' W 124°47'816.2
2019-Sep-27 06:30N 49°49' W 124°56'816.1
2019-Sep-27 06:00N 49°55' W 125°04'713.3
2019-Sep-27 05:30N 49°59' W 125°12'613.2
2019-Sep-27 05:00N 50°05' W 125°17'612.7
2019-Sep-27 04:30N 50°11' W 125°22'814.9
2019-Sep-27 03:59N 50°18' W 125°25'9014.6
2019-Sep-26 21:47N 50°59' W 127°32'717.4
2019-Sep-26 21:25N 51°03' W 127°40'717.5
2019-Sep-26 21:00N 51°08' W 127°47'816.2
2019-Sep-26 20:30N 51°15' W 127°55'816.2
2019-Sep-26 20:00N 51°22' W 127°50'815.5
2019-Sep-26 19:30N 51°30' W 127°51'815.9
2019-Sep-26 19:00N 51°37' W 127°53'815.8
2019-Sep-26 18:31N 51°45' W 127°55'815.6
2019-Sep-26 18:01N 51°53' W 127°56'815.6
2019-Sep-26 17:30N 52°01' W 127°56'611.8
2019-Sep-26 17:00N 52°04' W 128°03'611.2
2019-Sep-26 16:30N 52°09' W 128°08'4 7.7
2019-Sep-26 16:00N 52°13' W 128°09'815.8
2019-Sep-26 15:30N 52°15' W 128°21'714.4
2019-Sep-26 15:01N 52°17' W 128°32'815.0
2019-Sep-26 14:31N 52°24' W 128°30'714.9
2019-Sep-26 14:00N 52°32' W 128°28'714.9
2019-Sep-26 13:30N 52°39' W 128°32'9213.9
2019-Sep-26 06:55N 53°52' W 130°04'615.3
2019-Sep-26 06:30N 53°56' W 130°12'815.5
2019-Sep-26 06:00N 54°04' W 130°16'815.5
2019-Sep-26 05:30N 54°09' W 130°25'815.5
2019-Sep-26 05:00N 54°16' W 130°32'815.0
2019-Sep-26 04:30N 54°23' W 130°37'  
2019-Sep-22 11:17N 54°38' W 130°41'516.6
2019-Sep-22 11:00N 54°33' W 130°40'917.2
2019-Sep-22 10:30N 54°25' W 130°37'817.1
2019-Sep-22 10:00N 54°16' W 130°33'917.6
2019-Sep-22 09:31N 54°09' W 130°25'713.3
2019-Sep-22 09:00N 54°05' W 130°16'815.9
2019-Sep-22 08:30N 53°57' W 130°12'816.1
2019-Sep-22 08:00N 53°51' W 130°03'8614.9
2019-Sep-22 02:14N 52°44' W 128°33'415.2
2019-Sep-22 01:57N 52°39' W 128°32'715.5
2019-Sep-22 01:30N 52°33' W 128°28'816.6
2019-Sep-22 01:00N 52°25' W 128°30'816.6
2019-Sep-22 00:30N 52°17' W 128°33'510.4
2019-Sep-22 00:00N 52°16' W 128°25'815.5
2019-Sep-21 23:30N 52°14' W 128°12'5 9.5
2019-Sep-21 23:00N 52°10' W 128°08'4 7.0
2019-Sep-21 22:30N 52°07' W 128°08'713.3
2019-Sep-21 22:00N 52°04' W 127°57'715.2
2019-Sep-21 21:30N 51°57' W 127°55'816.3
2019-Sep-21 21:00N 51°49' W 127°55'816.1
2019-Sep-21 20:30N 51°41' W 127°55'816.2
2019-Sep-21 20:00N 51°33' W 127°52'816.1
2019-Sep-21 19:30N 51°25' W 127°51'816.1
2019-Sep-21 19:00N 51°17' W 127°54'612.4
2019-Sep-21 18:30N 51°11' W 127°52'815.8
2019-Sep-21 18:01N 51°05' W 127°43'815.3
2019-Sep-21 17:31N 50°59' W 127°35'9315.0
2019-Sep-21 11:18N 50°17' W 125°24'517.4
2019-Sep-21 11:00N 50°12' W 125°22'816.3
2019-Sep-21 10:30N 50°05' W 125°16'612.2
2019-Sep-21 10:00N 49°59' W 125°12'816.7
2019-Sep-21 09:30N 49°53' W 125°03'815.9
2019-Sep-21 09:00N 49°48' W 124°54'816.1
2019-Sep-21 08:30N 49°42' W 124°45'1016.3
2019-Sep-21 07:52N 49°35' W 124°34'1016.1
2019-Sep-21 07:13N 49°28' W 124°22'315.7
2019-Sep-21 07:00N 49°26' W 124°18'816.2
2019-Sep-21 06:30N 49°24' W 124°06'815.5
2019-Sep-21 06:00N 49°22' W 123°54'815.2
2019-Sep-21 05:30N 49°19' W 123°44'815.5
2019-Sep-21 05:00N 49°13' W 123°35'815.6
2019-Sep-21 04:30N 49°08' W 123°27'815.4
2019-Sep-21 04:00N 49°03' W 123°18'815.6
2019-Sep-21 03:30N 48°57' W 123°09'815.3
2019-Sep-21 03:00N 48°52' W 123°01'815.3
2019-Sep-21 02:29N 48°47' W 122°51'715.4
2019-Sep-21 02:00N 48°42' W 122°43'714.0
2019-Sep-21 01:30N 48°39' W 122°34'5 9.1
2019-Sep-21 00:55N 48°43' W 122°31'0 0.0
2019-Sep-20 23:28N 48°43' W 122°31'0 0.0
2019-Sep-20 22:40N 48°43' W 122°31'0 0.0
2019-Sep-20 22:10N 48°43' W 122°31'0 0.0
2019-Sep-20 21:40N 48°43' W 122°31'0 0.0
2019-Sep-20 21:28N 48°43' W 122°31'0 0.0
2019-Sep-20 20:34N 48°43' W 122°31'0 0.0
2019-Sep-20 20:28N 48°43' W 122°31'0 0.0
2019-Sep-20 19:58N 48°43' W 122°31'0 0.0
2019-Sep-20 18:46N 48°43' W 122°31'0 0.0
2019-Sep-20 18:28N 48°43' W 122°31'0 0.0
2019-Sep-20 16:46N 48°43' W 122°31'0 0.0
2019-Sep-20 15:34N 48°43' W 122°31'0 0.0
2019-Sep-20 14:39N 48°43' W 122°31'0 0.6
2019-Sep-20 14:30N 48°43' W 122°31'4 7.3
2019-Sep-20 14:01N 48°40' W 122°33'510.9
2019-Sep-20 13:31N 48°40' W 122°42'815.3
2019-Sep-20 13:01N 48°46' W 122°49'816.2
2019-Sep-20 12:30N 48°50' W 122°59'816.1
2019-Sep-20 12:01N 48°55' W 123°09'816.3
2019-Sep-20 11:30N 49°00' W 123°18'816.1
2019-Sep-20 11:00N 49°06' W 123°27'816.4
2019-Sep-20 10:30N 49°12' W 123°35'816.7
2019-Sep-20 10:00N 49°18' W 123°44'815.4
2019-Sep-20 09:31N 49°22' W 123°54'815.8
2019-Sep-20 09:00N 49°24' W 124°06'714.8
2019-Sep-20 08:30N 49°25' W 124°17'1715.5
2019-Sep-20 07:26N 49°36' W 124°36'716.0
2019-Sep-20 07:00N 49°41' W 124°44'816.2
2019-Sep-20 06:30N 49°47' W 124°53'816.2
2019-Sep-20 06:00N 49°53' W 125°01'816.4
2019-Sep-20 05:30N 49°59' W 125°10'510.9
2019-Sep-20 05:00N 50°03' W 125°15'4 8.2
2019-Sep-20 04:30N 50°07' W 125°18'611.5
2019-Sep-20 04:00N 50°12' W 125°22'713.3
2019-Sep-20 03:29N 50°18' W 125°25'9014.7
2019-Sep-19 21:22N 50°58' W 127°32'715.3
2019-Sep-19 20:53N 51°04' W 127°40'615.1
2019-Sep-19 20:30N 51°08' W 127°47'713.9
2019-Sep-19 20:00N 51°14' W 127°53'815.4
2019-Sep-19 19:30N 51°21' W 127°50'815.4
2019-Sep-19 19:00N 51°29' W 127°50'815.8
2019-Sep-19 18:30N 51°37' W 127°53'815.7
2019-Sep-19 18:00N 51°44' W 127°55'815.7
2019-Sep-19 17:30N 51°52' W 127°56'815.8
2019-Sep-19 17:00N 51°60' W 127°56'612.1
2019-Sep-19 16:30N 52°04' W 128°02'611.6
2019-Sep-19 16:01N 52°09' W 128°08'4 7.3
2019-Sep-19 15:30N 52°13' W 128°08'715.1
2019-Sep-19 15:00N 52°15' W 128°20'815.1
2019-Sep-19 14:30N 52°16' W 128°32'815.3
2019-Sep-19 14:00N 52°24' W 128°31'815.3
2019-Sep-19 13:30N 52°31' W 128°28'714.9
2019-Sep-19 13:00N 52°38' W 128°31'  
Track history (hours):
 
Tides and Currents Weather Stations Pressure Air Temp Water Temp Dewpoint Dewpoint Depression Visibility Wind Speed Wind Dir Waves Ship Positions

Columbia

Owner: ALASKA, STATE OF, ANCHORAGE, AK. More information available from US FCC via Universal Licensing System and Coast Guard Vessel Documentation Center.

Last reported at 2019-Sep-29 11:48 UTC. Time now 2019-Oct-16 20:02 UTC.
Position N 54°54' W 131°02'.
Warning: this ship's position is 17 days out of date.

Type: Passenger vessel. MMSI: 367144000.

Date/timePositionNaut miles runAvg speedWind from/ knotsBaromVisibWave heightAir tempDewpointWater temp
2019-Sep-29 11:48N 54°54' W 131°02'515.6
2019-Sep-29 11:30N 54°49' W 130°60'1017.2
2019-Sep-29 10:57N 54°42' W 130°48'715.9
2019-Sep-29 10:30N 54°37' W 130°41'816.0
2019-Sep-29 10:00N 54°29' W 130°39'815.4
2019-Sep-29 09:30N 54°21' W 130°36'815.7
2019-Sep-29 09:00N 54°14' W 130°31'815.7
2019-Sep-29 08:30N 54°08' W 130°23'713.5
2019-Sep-29 08:00N 54°03' W 130°15'815.8
2019-Sep-29 07:30N 53°55' W 130°11'815.5
2019-Sep-29 07:00N 53°50' W 130°01'815.5
2019-Sep-29 06:30N 53°45' W 129°52'7814.7
2019-Sep-29 01:13N 52°43' W 128°34'315.1
2019-Sep-29 00:59N 52°39' W 128°32'816.2
2019-Sep-29 00:30N 52°32' W 128°28'815.8
2019-Sep-29 00:01N 52°24' W 128°30'815.4
2019-Sep-28 23:30N 52°17' W 128°27'918.7
2019-Sep-28 23:01N 52°14' W 128°12'5 9.1
2019-Sep-28 22:30N 52°10' W 128°08'2 4.9
2019-Sep-28 22:00N 52°08' W 128°08'815.6
2019-Sep-28 21:30N 52°04' W 127°57'815.5
2019-Sep-28 21:01N 51°56' W 127°56'917.2
2019-Sep-28 20:31N 51°48' W 127°55'917.2
2019-Sep-28 20:01N 51°39' W 127°54'816.5
2019-Sep-28 19:31N 51°31' W 127°51'815.5
2019-Sep-28 19:01N 51°24' W 127°55'816.8
2019-Sep-28 18:30N 51°15' W 127°52'816.2
2019-Sep-28 18:00N 51°08' W 127°47'1116.7
2019-Sep-28 17:21N 50°60' W 127°35'2817.2
2019-Sep-28 15:44N 50°44' W 126°59'6617.9
2019-Sep-28 12:02N 50°17' W 125°24'118.4
2019-Sep-28 11:59N 50°16' W 125°24'817.2
2019-Sep-28 11:30N 50°08' W 125°21'612.9
2019-Sep-28 11:00N 50°03' W 125°14'713.3
2019-Sep-28 10:30N 49°57' W 125°09'816.7
2019-Sep-28 10:00N 49°52' W 124°59'917.2
2019-Sep-28 09:30N 49°45' W 124°50'916.5
2019-Sep-28 08:59N 49°39' W 124°41'1616.8
2019-Sep-28 08:02N 49°28' W 124°23'116.0
2019-Sep-28 07:57N 49°27' W 124°22'817.4
2019-Sep-28 07:30N 49°25' W 124°11'917.5
2019-Sep-28 07:00N 49°23' W 123°57'816.6
2019-Sep-28 06:30N 49°19' W 123°46'815.5
2019-Sep-28 06:00N 49°14' W 123°37'816.3
2019-Sep-28 05:30N 49°09' W 123°28'816.5
2019-Sep-28 05:00N 49°03' W 123°19'816.0
2019-Sep-28 04:31N 48°57' W 123°10'815.7
2019-Sep-28 04:00N 48°52' W 123°01'816.0
2019-Sep-28 03:30N 48°47' W 122°51'715.2
2019-Sep-28 03:01N 48°42' W 122°43'713.9
2019-Sep-28 02:30N 48°39' W 122°34'510.5
2019-Sep-28 02:00N 48°43' W 122°31'0 0.0
2019-Sep-27 19:50N 48°43' W 122°31'0 0.0
2019-Sep-27 19:20N 48°43' W 122°31'0 0.0
2019-Sep-27 18:20N 48°43' W 122°31'0 0.0
2019-Sep-27 17:56N 48°43' W 122°31'0 0.0
2019-Sep-27 17:14N 48°43' W 122°31'0 0.0
2019-Sep-27 16:50N 48°43' W 122°31'0 0.0
2019-Sep-27 16:08N 48°43' W 122°31'0 0.0
2019-Sep-27 15:44N 48°43' W 122°31'0 0.0
2019-Sep-27 15:26N 48°43' W 122°31'0 0.0
2019-Sep-27 14:56N 48°43' W 122°31'0 0.3
2019-Sep-27 14:30N 48°44' W 122°31'4 7.9
2019-Sep-27 14:00N 48°40' W 122°33'510.9
2019-Sep-27 13:30N 48°39' W 122°42'816.5
2019-Sep-27 13:00N 48°46' W 122°50'816.9
2019-Sep-27 12:30N 48°50' W 123°01'817.0
2019-Sep-27 12:00N 48°56' W 123°10'815.1
2019-Sep-27 11:30N 49°00' W 123°19'816.0
2019-Sep-27 11:00N 49°06' W 123°28'815.9
2019-Sep-27 10:30N 49°11' W 123°38'816.1
2019-Sep-27 10:00N 49°15' W 123°48'815.7
2019-Sep-27 09:30N 49°19' W 123°59'816.1
2019-Sep-27 09:00N 49°23' W 124°09'815.2
2019-Sep-27 08:30N 49°26' W 124°20'1416.5
2019-Sep-27 07:39N 49°35' W 124°36'316.3
2019-Sep-27 07:29N 49°37' W 124°39'816.1
2019-Sep-27 07:00N 49°43' W 124°47'816.2
2019-Sep-27 06:30N 49°49' W 124°56'816.1
2019-Sep-27 06:00N 49°55' W 125°04'713.3
2019-Sep-27 05:30N 49°59' W 125°12'613.2
2019-Sep-27 05:00N 50°05' W 125°17'612.7
2019-Sep-27 04:30N 50°11' W 125°22'814.9
2019-Sep-27 03:59N 50°18' W 125°25'9014.6
2019-Sep-26 21:47N 50°59' W 127°32'717.4
2019-Sep-26 21:25N 51°03' W 127°40'717.5
2019-Sep-26 21:00N 51°08' W 127°47'816.2
2019-Sep-26 20:30N 51°15' W 127°55'816.2
2019-Sep-26 20:00N 51°22' W 127°50'815.5
2019-Sep-26 19:30N 51°30' W 127°51'815.9
2019-Sep-26 19:00N 51°37' W 127°53'815.8
2019-Sep-26 18:31N 51°45' W 127°55'815.6
2019-Sep-26 18:01N 51°53' W 127°56'815.6
2019-Sep-26 17:30N 52°01' W 127°56'611.8
2019-Sep-26 17:00N 52°04' W 128°03'611.2
2019-Sep-26 16:30N 52°09' W 128°08'4 7.7
2019-Sep-26 16:00N 52°13' W 128°09'815.8
2019-Sep-26 15:30N 52°15' W 128°21'714.4
2019-Sep-26 15:01N 52°17' W 128°32'815.0
2019-Sep-26 14:31N 52°24' W 128°30'714.9
2019-Sep-26 14:00N 52°32' W 128°28'714.9
2019-Sep-26 13:30N 52°39' W 128°32'9213.9
2019-Sep-26 06:55N 53°52' W 130°04'615.3
2019-Sep-26 06:30N 53°56' W 130°12'815.5
2019-Sep-26 06:00N 54°04' W 130°16'815.5
2019-Sep-26 05:30N 54°09' W 130°25'815.5
2019-Sep-26 05:00N 54°16' W 130°32'815.0
2019-Sep-26 04:30N 54°23' W 130°37'  
2019-Sep-22 11:17N 54°38' W 130°41'516.6
2019-Sep-22 11:00N 54°33' W 130°40'917.2
2019-Sep-22 10:30N 54°25' W 130°37'817.1
2019-Sep-22 10:00N 54°16' W 130°33'917.6
2019-Sep-22 09:31N 54°09' W 130°25'713.3
2019-Sep-22 09:00N 54°05' W 130°16'815.9
2019-Sep-22 08:30N 53°57' W 130°12'816.1
2019-Sep-22 08:00N 53°51' W 130°03'8614.9
2019-Sep-22 02:14N 52°44' W 128°33'415.2
2019-Sep-22 01:57N 52°39' W 128°32'715.5
2019-Sep-22 01:30N 52°33' W 128°28'816.6
2019-Sep-22 01:00N 52°25' W 128°30'816.6
2019-Sep-22 00:30N 52°17' W 128°33'510.4
2019-Sep-22 00:00N 52°16' W 128°25'815.5
2019-Sep-21 23:30N 52°14' W 128°12'5 9.5
2019-Sep-21 23:00N 52°10' W 128°08'4 7.0
2019-Sep-21 22:30N 52°07' W 128°08'713.3
2019-Sep-21 22:00N 52°04' W 127°57'715.2
2019-Sep-21 21:30N 51°57' W 127°55'816.3
2019-Sep-21 21:00N 51°49' W 127°55'816.1
2019-Sep-21 20:30N 51°41' W 127°55'816.2
2019-Sep-21 20:00N 51°33' W 127°52'816.1
2019-Sep-21 19:30N 51°25' W 127°51'816.1
2019-Sep-21 19:00N 51°17' W 127°54'612.4
2019-Sep-21 18:30N 51°11' W 127°52'815.8
2019-Sep-21 18:01N 51°05' W 127°43'815.3
2019-Sep-21 17:31N 50°59' W 127°35'9315.0
2019-Sep-21 11:18N 50°17' W 125°24'517.4
2019-Sep-21 11:00N 50°12' W 125°22'816.3
2019-Sep-21 10:30N 50°05' W 125°16'612.2
2019-Sep-21 10:00N 49°59' W 125°12'816.7
2019-Sep-21 09:30N 49°53' W 125°03'815.9
2019-Sep-21 09:00N 49°48' W 124°54'816.1
2019-Sep-21 08:30N 49°42' W 124°45'1016.3
2019-Sep-21 07:52N 49°35' W 124°34'1016.1
2019-Sep-21 07:13N 49°28' W 124°22'315.7
2019-Sep-21 07:00N 49°26' W 124°18'816.2
2019-Sep-21 06:30N 49°24' W 124°06'815.5
2019-Sep-21 06:00N 49°22' W 123°54'815.2
2019-Sep-21 05:30N 49°19' W 123°44'815.5
2019-Sep-21 05:00N 49°13' W 123°35'815.6
2019-Sep-21 04:30N 49°08' W 123°27'815.4
2019-Sep-21 04:00N 49°03' W 123°18'815.6
2019-Sep-21 03:30N 48°57' W 123°09'815.3
2019-Sep-21 03:00N 48°52' W 123°01'815.3
2019-Sep-21 02:29N 48°47' W 122°51'715.4
2019-Sep-21 02:00N 48°42' W 122°43'714.0
2019-Sep-21 01:30N 48°39' W 122°34'5 9.1
2019-Sep-21 00:55N 48°43' W 122°31'0 0.0
2019-Sep-20 23:28N 48°43' W 122°31'0 0.0
2019-Sep-20 22:40N 48°43' W 122°31'0 0.0
2019-Sep-20 22:10N 48°43' W 122°31'0 0.0
2019-Sep-20 21:40N 48°43' W 122°31'0 0.0
2019-Sep-20 21:28N 48°43' W 122°31'0 0.0
2019-Sep-20 20:34N 48°43' W 122°31'0 0.0
2019-Sep-20 20:28N 48°43' W 122°31'0 0.0
2019-Sep-20 19:58N 48°43' W 122°31'0 0.0
2019-Sep-20 18:46N 48°43' W 122°31'0 0.0
2019-Sep-20 18:28N 48°43' W 122°31'0 0.0
2019-Sep-20 16:46N 48°43' W 122°31'0 0.0
2019-Sep-20 15:34N 48°43' W 122°31'0 0.0
2019-Sep-20 14:39N 48°43' W 122°31'0 0.6
2019-Sep-20 14:30N 48°43' W 122°31'4 7.3
2019-Sep-20 14:01N 48°40' W 122°33'510.9
2019-Sep-20 13:31N 48°40' W 122°42'815.3
2019-Sep-20 13:01N 48°46' W 122°49'816.2
2019-Sep-20 12:30N 48°50' W 122°59'816.1
2019-Sep-20 12:01N 48°55' W 123°09'816.3
2019-Sep-20 11:30N 49°00' W 123°18'816.1
2019-Sep-20 11:00N 49°06' W 123°27'816.4
2019-Sep-20 10:30N 49°12' W 123°35'816.7
2019-Sep-20 10:00N 49°18' W 123°44'815.4
2019-Sep-20 09:31N 49°22' W 123°54'815.8
2019-Sep-20 09:00N 49°24' W 124°06'714.8
2019-Sep-20 08:30N 49°25' W 124°17'1715.5
2019-Sep-20 07:26N 49°36' W 124°36'716.0
2019-Sep-20 07:00N 49°41' W 124°44'816.2
2019-Sep-20 06:30N 49°47' W 124°53'816.2
2019-Sep-20 06:00N 49°53' W 125°01'816.4
2019-Sep-20 05:30N 49°59' W 125°10'510.9
2019-Sep-20 05:00N 50°03' W 125°15'4 8.2
2019-Sep-20 04:30N 50°07' W 125°18'611.5
2019-Sep-20 04:00N 50°12' W 125°22'713.3
2019-Sep-20 03:29N 50°18' W 125°25'9014.7
2019-Sep-19 21:22N 50°58' W 127°32'715.3
2019-Sep-19 20:53N 51°04' W 127°40'615.1
2019-Sep-19 20:30N 51°08' W 127°47'713.9
2019-Sep-19 20:00N 51°14' W 127°53'815.4
2019-Sep-19 19:30N 51°21' W 127°50'815.4
2019-Sep-19 19:00N 51°29' W 127°50'815.8
2019-Sep-19 18:30N 51°37' W 127°53'815.7
2019-Sep-19 18:00N 51°44' W 127°55'815.7
2019-Sep-19 17:30N 51°52' W 127°56'815.8
2019-Sep-19 17:00N 51°60' W 127°56'612.1
2019-Sep-19 16:30N 52°04' W 128°02'611.6
2019-Sep-19 16:01N 52°09' W 128°08'4 7.3
2019-Sep-19 15:30N 52°13' W 128°08'715.1
2019-Sep-19 15:00N 52°15' W 128°20'815.1
2019-Sep-19 14:30N 52°16' W 128°32'815.3
2019-Sep-19 14:00N 52°24' W 128°31'815.3
2019-Sep-19 13:30N 52°31' W 128°28'714.9
2019-Sep-19 13:00N 52°38' W 128°31'  

Dump ship's entire track history